aviador You're here:

CYSF Decoded Metar

STONY RAPIDS in SK, CANADA
Report Time2018-02-19 11:45:00
UTC Time2018-02-19 11:58:08
Flight Rules vfr VFR
Wind100° at 03 kt
W.Decomp.*RWY 06: 2.6 kt HW 1.5 kt RCW
W.Rank100° ranks 4
Current wind is below 100° avg. (5.5)
Visibility9656 m
Phenomena:Light Snow
Clouds:Overcast 044 Hf
Expected CloudBase > 1,600 ft AGL from Temp-Dew spread
Ceiling4,400 ft
Temp-31°C (ISA -44)
Dew Point-35°C (68% RH)
AAT-36.0°C
QNH1013 hPa
Density Alt-5,000 ft
Elevation820 ft
Report Wrong Elevation
Raw Report
SPECI CYSF 191145Z AUTO 10003KT 6SM -SN OVC044 M31/M35 A2991 RMK SLP169=

Extra information for CYSF:More info

Metar Taf Metar & Taf Last 4 Metars F.Rules Stats Wind Profile Meteogram Temp Stats Airport Information Weather charts Add Link Nearby VenuesMetar ALERT Operation Metar Decoded Social comments